Time;durP1;ratioP1;P1;durP2;ratioP2;P2;SDS_P1;SDS_P2;PMS_P1;PMS_P2;Temp;Humidity;BMP_temperature;BMP_pressure;BME280_temperature;BME280_humidity;BME280_pressure;Samples;Min_cycle;Max_cycle;Signal;HPM_P1;HPM_P2
2023/07/12 00:02:03;;;;;;;4.45;1.40;;;;;;;18.97;100.00;100715.38;5198760;28;20034;-69
2023/07/12 00:04:35;;;;;;;4.32;1.48;;;;;;;18.91;100.00;100716.91;5197958;28;20054;-69
2023/07/12 00:07:12;;;;;;;4.40;1.55;;;;;;;18.93;100.00;100722.16;5198129;28;20040;-70
2023/07/12 00:09:43;;;;;;;4.18;1.70;;;;;;;18.79;100.00;100710.16;5197584;28;20034;-69
2023/07/12 00:12:14;;;;;;;3.85;1.80;;;;;;;18.87;100.00;100715.59;5199792;28;20064;-70
2023/07/12 00:14:46;;;;;;;4.88;2.03;;;;;;;18.86;100.00;100731.97;5199400;28;20030;-69
2023/07/12 00:17:18;;;;;;;4.28;1.70;;;;;;;18.79;100.00;100746.16;5200088;28;20080;-69
2023/07/12 00:19:50;;;;;;;4.75;1.75;;;;;;;18.75;100.00;100758.31;5197888;28;20046;-69
2023/07/12 00:22:23;;;;;;;3.63;1.85;;;;;;;18.76;100.00;100764.59;5198585;28;20076;-69
2023/07/12 00:24:54;;;;;;;4.00;1.93;;;;;;;18.72;100.00;100766.78;5198803;28;20033;-70
2023/07/12 00:27:25;;;;;;;4.45;1.90;;;;;;;18.60;100.00;100760.03;5201141;28;20030;-69
2023/07/12 00:29:57;;;;;;;5.00;2.10;;;;;;;18.57;100.00;100780.16;5207096;28;20022;-69
2023/07/12 00:32:28;;;;;;;3.95;2.10;;;;;;;18.54;100.00;100785.06;5204882;28;20503;-69
2023/07/12 00:35:00;;;;;;;5.15;2.17;;;;;;;18.52;100.00;100778.97;5201833;28;20025;-69
2023/07/12 00:37:31;;;;;;;5.22;2.20;;;;;;;18.53;100.00;100789.63;5204199;28;20437;-70
2023/07/12 00:40:18;;;;;;;4.95;2.28;;;;;;;18.51;100.00;100786.25;5202478;28;20054;-70
2023/07/12 00:42:58;;;;;;;4.30;2.17;;;;;;;18.51;100.00;100796.22;5202151;28;20034;-69
2023/07/12 00:45:31;;;;;;;5.65;2.53;;;;;;;18.44;100.00;100800.59;5202070;28;20444;-69
2023/07/12 00:48:02;;;;;;;4.63;2.37;;;;;;;18.47;100.00;100797.56;5204420;28;20061;-69
2023/07/12 00:50:34;;;;;;;5.68;2.30;;;;;;;18.43;100.00;100794.38;5205397;28;20121;-69
2023/07/12 00:53:12;;;;;;;5.60;2.40;;;;;;;18.42;100.00;100793.50;5201061;28;21148;-69
2023/07/12 00:56:10;;;;;;;7.07;2.72;;;;;;;18.47;100.00;100803.81;5199988;28;20030;-69
2023/07/12 00:58:49;;;;;;;8.27;2.70;;;;;;;18.49;100.00;100801.78;5201127;28;20065;-69
2023/07/12 01:01:21;;;;;;;4.65;2.60;;;;;;;18.45;100.00;100807.69;5200738;28;20384;-69
2023/07/12 01:03:55;;;;;;;6.53;2.90;;;;;;;18.44;100.00;100833.88;5204315;28;20069;-69
2023/07/12 01:06:26;;;;;;;6.22;2.60;;;;;;;18.52;100.00;100827.59;5203482;28;20029;-69
2023/07/12 01:09:06;;;;;;;5.80;2.80;;;;;;;18.44;100.00;100827.63;5200464;28;20046;-69
2023/07/12 01:11:39;;;;;;;6.05;3.08;;;;;;;18.36;100.00;100841.97;5202249;28;20824;-69
2023/07/12 01:14:13;;;;;;;8.07;2.75;;;;;;;18.32;100.00;100795.53;5201343;28;20025;-69
2023/07/12 01:16:50;;;;;;;6.85;3.10;;;;;;;18.32;100.00;100781.19;5205080;28;20036;-69
2023/07/12 01:19:21;;;;;;;6.30;3.20;;;;;;;18.25;100.00;100791.00;5201602;28;20385;-69
2023/07/12 01:21:54;;;;;;;5.80;3.00;;;;;;;18.20;100.00;100788.81;5206337;28;20434;-69
2023/07/12 01:24:30;;;;;;;6.55;3.30;;;;;;;18.16;100.00;100782.91;5205030;28;20069;-69
2023/07/12 01:27:21;;;;;;;9.05;3.28;;;;;;;18.18;100.00;100791.66;5204069;28;20049;-69
2023/07/12 01:29:53;;;;;;;7.30;3.20;;;;;;;18.06;100.00;100801.09;5203249;28;20112;-69
2023/07/12 01:32:27;;;;;;;9.48;3.80;;;;;;;17.99;100.00;100800.94;5197534;28;20034;-71
2023/07/12 01:34:58;;;;;;;8.63;3.60;;;;;;;17.92;100.00;100786.41;5201617;28;20030;-71
2023/07/12 01:37:29;;;;;;;6.75;3.38;;;;;;;17.85;100.00;100792.63;5202241;28;20068;-71
2023/07/12 01:40:01;;;;;;;8.05;3.90;;;;;;;17.92;100.00;100815.28;5195230;28;20436;-72
2023/07/12 01:42:32;;;;;;;8.90;3.40;;;;;;;17.68;100.00;100806.09;5201901;28;20399;-71
2023/07/12 01:45:04;;;;;;;9.25;3.38;;;;;;;17.62;100.00;100774.34;5207605;28;20494;-72
2023/07/12 01:47:35;;;;;;;8.90;3.75;;;;;;;17.52;100.00;100768.25;5202311;28;20045;-71
2023/07/12 01:50:07;;;;;;;7.03;3.58;;;;;;;17.48;100.00;100761.50;5208620;28;20538;-72
2023/07/12 01:52:38;;;;;;;8.07;4.43;;;;;;;17.47;100.00;100759.81;5208359;28;20041;-71
2023/07/12 01:55:10;;;;;;;6.32;3.53;;;;;;;17.43;100.00;100775.47;5205116;28;20030;-72
2023/07/12 01:57:41;;;;;;;9.52;4.13;;;;;;;17.47;100.00;100778.69;5203330;28;20023;-71
2023/07/12 02:00:13;;;;;;;7.63;4.10;;;;;;;17.40;100.00;100776.66;5200807;28;20062;-71
2023/07/12 02:02:45;;;;;;;6.82;4.38;;;;;;;17.44;100.00;100772.63;5203930;28;20048;-71
2023/07/12 02:05:18;;;;;;;9.90;4.80;;;;;;;17.40;100.00;100765.88;5199894;28;20373;-71
2023/07/12 02:07:52;;;;;;;7.20;4.53;;;;;;;17.35;100.00;100776.28;5195039;28;20456;-71
2023/07/12 02:10:23;;;;;;;;;;;;;;;17.45;100.00;100738.41;5218816;28;20033;-71
2023/07/12 02:12:54;;;;;;;8.93;5.05;;;;;;;17.31;100.00;100731.78;5215851;28;19920;-70
2023/07/12 02:15:26;;;;;;;9.95;5.18;;;;;;;17.27;100.00;100772.75;5212666;28;20475;-70
2023/07/12 02:17:58;;;;;;;7.97;4.32;;;;;;;17.24;100.00;100808.97;5204676;28;20022;-70
2023/07/12 02:20:29;;;;;;;6.88;4.25;;;;;;;17.20;100.00;100826.44;5201216;28;20376;-69
2023/07/12 02:23:01;;;;;;;7.10;4.05;;;;;;;17.17;100.00;100818.69;5209874;28;20462;-69
2023/07/12 02:25:32;;;;;;;13.05;5.80;;;;;;;17.21;100.00;100820.91;5205673;28;20033;-69
2023/07/12 02:28:04;;;;;;;9.10;4.82;;;;;;;17.17;100.00;100830.31;5216025;28;20391;-69
2023/07/12 02:30:36;;;;;;;7.60;4.20;;;;;;;17.06;100.00;100784.78;5209463;28;20038;-69
2023/07/12 02:33:08;;;;;;;8.85;5.05;;;;;;;17.11;100.00;100787.00;5202094;28;20060;-69
2023/07/12 02:35:43;;;;;;;9.05;4.43;;;;;;;17.05;100.00;100796.56;5197802;28;20770;-69
2023/07/12 02:38:14;;;;;;;8.15;4.07;;;;;;;17.05;100.00;100800.09;5197431;28;20038;-70
2023/07/12 02:40:46;;;;;;;9.90;4.32;;;;;;;16.99;100.00;100781.91;5198176;28;20434;-69
2023/07/12 02:43:17;;;;;;;8.68;4.55;;;;;;;16.90;100.00;100803.56;5199890;28;20537;-69
2023/07/12 02:45:49;;;;;;;8.40;4.53;;;;;;;16.81;100.00;100803.47;5198688;28;20087;-69
2023/07/12 02:48:20;;;;;;;7.32;4.28;;;;;;;16.85;100.00;100798.66;5201128;28;20033;-69
2023/07/12 02:50:51;;;;;;;7.75;4.15;;;;;;;16.85;100.00;100804.03;5200726;28;20447;-69
2023/07/12 02:53:23;;;;;;;7.10;3.47;;;;;;;16.76;100.00;100796.88;5201186;28;20021;-69
2023/07/12 02:55:55;;;;;;;8.88;4.20;;;;;;;16.81;100.00;100800.78;5197783;28;20113;-69
2023/07/12 02:58:26;;;;;;;8.40;3.65;;;;;;;16.80;100.00;100806.34;5200545;28;20030;-69
2023/07/12 03:00:58;;;;;;;7.00;3.35;;;;;;;16.72;100.00;100808.97;5200644;28;20037;-69
2023/07/12 03:03:30;;;;;;;7.78;3.50;;;;;;;16.58;100.00;100805.00;5199039;28;20037;-69
2023/07/12 03:06:04;;;;;;;10.10;3.67;;;;;;;16.58;100.00;100813.94;5202446;28;20029;-69
2023/07/12 03:08:35;;;;;;;6.20;3.38;;;;;;;16.59;100.00;100821.03;5199018;28;20054;-69
2023/07/12 03:11:08;;;;;;;6.25;3.10;;;;;;;16.46;100.00;100823.28;5199730;28;20026;-69
2023/07/12 03:13:39;;;;;;;6.10;3.00;;;;;;;16.52;100.00;100816.41;5201495;28;21504;-69
2023/07/12 03:16:11;;;;;;;6.20;2.70;;;;;;;16.49;100.00;100819.41;5200470;28;20033;-69
2023/07/12 03:18:43;;;;;;;6.70;3.00;;;;;;;16.49;100.00;100819.41;5200244;28;20435;-69
2023/07/12 03:21:15;;;;;;;5.22;3.55;;;;;;;16.54;100.00;100826.03;5200637;28;20100;-69
2023/07/12 03:23:46;;;;;;;7.53;3.28;;;;;;;16.67;100.00;100826.47;5201897;28;20042;-69
2023/07/12 03:26:18;;;;;;;6.40;2.92;;;;;;;16.46;100.00;100821.41;5199896;28;20034;-69
2023/07/12 03:28:50;;;;;;;7.13;3.15;;;;;;;16.61;100.00;100826.25;5200000;28;20026;-68
2023/07/12 03:31:22;;;;;;;6.55;3.05;;;;;;;16.65;100.00;100833.84;5199956;28;20086;-68
2023/07/12 03:33:53;;;;;;;8.57;2.90;;;;;;;16.49;100.00;100836.41;5201082;28;20022;-69
2023/07/12 03:36:30;;;;;;;8.57;3.05;;;;;;;16.57;100.00;100849.13;5201215;28;20034;-69
2023/07/12 03:39:01;;;;;;;7.78;3.45;;;;;;;16.43;100.00;100847.81;5199200;28;20085;-68
2023/07/12 03:41:34;;;;;;;6.25;2.85;;;;;;;16.42;100.00;100848.84;5194842;28;20625;-69
2023/07/12 03:44:05;;;;;;;7.80;3.55;;;;;;;16.41;100.00;100845.28;5201054;28;20033;-69
2023/07/12 03:46:36;;;;;;;6.47;3.10;;;;;;;16.34;100.00;100856.81;5200065;28;20081;-69
2023/07/12 03:49:08;;;;;;;6.57;3.00;;;;;;;16.35;100.00;100850.44;5195606;28;20080;-69
2023/07/12 03:51:39;;;;;;;6.57;3.30;;;;;;;16.29;100.00;100843.00;5197353;28;20142;-69
2023/07/12 03:54:12;;;;;;;6.57;3.38;;;;;;;16.28;100.00;100858.31;5195870;28;20060;-69
2023/07/12 03:56:43;;;;;;;8.70;4.07;;;;;;;16.27;100.00;100854.75;5200410;28;20068;-68
2023/07/12 03:59:14;;;;;;;8.85;3.85;;;;;;;16.25;100.00;100858.59;5200548;28;20557;-68
2023/07/12 04:01:46;;;;;;;7.90;3.63;;;;;;;16.19;100.00;100862.75;5198907;28;20027;-69
2023/07/12 04:04:17;;;;;;;8.18;4.10;;;;;;;16.17;100.00;100864.75;5202933;28;20029;-68
2023/07/12 04:06:48;;;;;;;6.60;4.03;;;;;;;16.20;100.00;100866.28;5200703;28;20033;-69
2023/07/12 04:09:20;;;;;;;7.43;4.80;;;;;;;16.29;100.00;100861.84;5199971;28;20132;-68
2023/07/12 04:11:51;;;;;;;9.68;4.40;;;;;;;16.21;100.00;100865.31;5202780;28;20044;-68
2023/07/12 04:14:23;;;;;;;8.85;4.63;;;;;;;16.19;100.00;100862.75;5200430;28;20030;-69
2023/07/12 04:16:54;;;;;;;6.47;4.00;;;;;;;16.14;100.00;100866.91;5197955;28;20088;-69
2023/07/12 04:19:25;;;;;;;9.02;4.22;;;;;;;16.23;100.00;100869.53;5198280;28;20029;-69
2023/07/12 04:21:57;;;;;;;6.80;4.53;;;;;;;16.21;100.00;100868.84;5197587;28;20518;-69
2023/07/12 04:24:28;;;;;;;9.13;4.85;;;;;;;16.21;100.00;100873.38;5197376;28;20064;-69
2023/07/12 04:26:59;;;;;;;7.07;4.50;;;;;;;16.33;100.00;100871.31;5204678;28;20057;-69
2023/07/12 04:29:31;;;;;;;9.13;4.43;;;;;;;16.19;100.00;100870.84;5203469;28;20423;-69
2023/07/12 04:32:03;;;;;;;9.02;4.80;;;;;;;16.33;100.00;100866.75;5201502;28;20394;-69
2023/07/12 04:34:35;;;;;;;8.02;3.95;;;;;;;16.31;100.00;100874.13;5198669;28;20022;-69
2023/07/12 04:37:06;;;;;;;9.70;3.95;;;;;;;16.25;100.00;100877.47;5197939;28;20046;-69
2023/07/12 04:39:38;;;;;;;7.38;3.90;;;;;;;16.27;100.00;100872.75;5199763;28;20030;-69
2023/07/12 04:42:09;;;;;;;7.75;3.55;;;;;;;16.25;100.00;100872.06;5202901;28;20037;-69
2023/07/12 04:44:40;;;;;;;6.03;3.40;;;;;;;16.28;100.00;100866.38;5202255;28;20396;-69
2023/07/12 04:47:14;;;;;;;9.20;3.70;;;;;;;16.33;100.00;100874.00;5205013;28;20022;-69
2023/07/12 04:49:46;;;;;;;7.65;3.45;;;;;;;16.24;100.00;100873.06;5204526;28;20030;-69
2023/07/12 04:52:17;;;;;;;6.88;2.90;;;;;;;16.21;100.00;100868.84;5201387;28;20507;-69
2023/07/12 04:54:49;;;;;;;8.52;3.40;;;;;;;16.23;100.00;100869.53;5202091;28;20038;-69
2023/07/12 04:57:20;;;;;;;8.18;2.88;;;;;;;16.18;100.00;100866.44;5200936;28;20520;-69
2023/07/12 04:59:51;;;;;;;6.07;2.95;;;;;;;16.22;100.00;100869.66;5200104;28;20034;-69
2023/07/12 05:02:23;;;;;;;9.23;3.25;;;;;;;16.15;100.00;100866.75;5198133;28;20041;-69
2023/07/12 05:04:54;;;;;;;8.50;3.58;;;;;;;16.15;100.00;100877.53;5195344;28;20513;-69
2023/07/12 05:07:28;;;;;;;8.20;3.00;;;;;;;16.14;100.00;100869.59;5203724;28;20030;-69
2023/07/12 05:09:59;;;;;;;10.75;3.35;;;;;;;16.12;100.00;100880.50;5205047;28;20398;-69
2023/07/12 05:12:31;;;;;;;7.00;3.50;;;;;;;16.18;100.00;100881.75;5212144;28;20030;-69
2023/07/12 05:15:04;;;;;;;11.70;3.28;;;;;;;16.12;100.00;100890.44;5207916;28;20038;-68
2023/07/12 05:17:36;;;;;;;8.73;3.58;;;;;;;16.26;100.00;100888.06;5207632;28;20496;-69
2023/07/12 05:20:13;;;;;;;8.57;3.72;;;;;;;16.23;100.00;100899.13;5200121;28;20414;-69
2023/07/12 05:22:47;;;;;;;7.47;4.15;;;;;;;16.27;100.00;100895.13;5209042;28;20406;-69
2023/07/12 05:25:18;;;;;;;10.70;3.58;;;;;;;16.37;100.00;100902.28;5208297;28;20811;-69
2023/07/12 05:27:49;;;;;;;8.02;3.88;;;;;;;16.41;100.00;100907.22;5208015;28;20022;-69
2023/07/12 05:30:21;;;;;;;6.63;3.40;;;;;;;16.43;100.00;100920.53;5206595;28;20026;-69
2023/07/12 05:32:52;;;;;;;9.25;3.60;;;;;;;16.45;100.00;100905.06;5205292;28;20116;-69
2023/07/12 05:35:23;;;;;;;7.78;3.58;;;;;;;16.45;100.00;100889.78;5203100;28;20122;-69
2023/07/12 05:37:55;;;;;;;8.93;3.90;;;;;;;16.52;100.00;100899.91;5199950;28;20077;-69
2023/07/12 05:40:27;;;;;;;8.02;3.80;;;;;;;16.57;100.00;100914.63;5195275;28;20108;-69
2023/07/12 05:42:58;;;;;;;7.07;3.30;;;;;;;16.44;100.00;100906.91;5201858;28;20033;-69
2023/07/12 05:45:30;;;;;;;7.05;3.30;;;;;;;16.44;100.00;100903.38;5195489;28;20049;-69
2023/07/12 05:48:01;;;;;;;7.80;3.60;;;;;;;16.40;100.00;100902.84;5201179;28;21184;-69
2023/07/12 05:50:32;;;;;;;6.85;3.55;;;;;;;16.51;100.00;100915.25;5200461;28;20051;-69
2023/07/12 05:53:04;;;;;;;8.27;3.53;;;;;;;16.42;100.00;100908.06;5195112;28;20456;-69
2023/07/12 05:55:35;;;;;;;8.60;3.72;;;;;;;16.46;100.00;100906.75;5196847;28;20030;-69
2023/07/12 05:58:07;;;;;;;8.45;3.50;;;;;;;16.45;100.00;100905.94;5205733;28;20054;-69
2023/07/12 06:00:39;;;;;;;13.43;3.78;;;;;;;16.47;100.00;100903.06;5211619;28;20029;-68
2023/07/12 06:03:11;;;;;;;7.72;3.60;;;;;;;16.51;100.00;100923.31;5207437;28;20041;-69
2023/07/12 06:05:44;;;;;;;10.07;3.85;;;;;;;16.54;100.00;100924.84;5205020;28;20746;-69
2023/07/12 06:08:15;;;;;;;9.15;3.70;;;;;;;16.53;100.00;100921.31;5207474;28;20049;-69
2023/07/12 06:10:47;;;;;;;6.57;3.72;;;;;;;16.52;100.00;100919.59;5212926;28;20088;-69
2023/07/12 06:13:18;;;;;;;6.43;3.78;;;;;;;16.55;100.00;100919.31;5204693;28;20137;-69
2023/07/12 06:15:50;;;;;;;9.80;3.97;;;;;;;16.63;100.00;100923.94;5200062;28;20051;-71
2023/07/12 06:18:22;;;;;;;8.85;4.50;;;;;;;16.65;100.00;100922.75;5200141;28;20436;-68
2023/07/12 06:20:59;;;;;;;12.38;4.70;;;;;;;16.72;100.00;100927.53;5205607;28;20040;-69
2023/07/12 06:23:30;;;;;;;8.10;4.13;;;;;;;16.79;100.00;100923.22;5196597;28;20019;-69
2023/07/12 06:26:02;;;;;;;10.77;4.38;;;;;;;16.84;100.00;100929.03;5210680;28;20037;-69
2023/07/12 06:28:33;;;;;;;10.07;4.57;;;;;;;16.95;100.00;100925.22;5205086;28;20088;-69
2023/07/12 06:31:06;;;;;;;8.90;4.20;;;;;;;16.98;100.00;100931.13;5199722;28;20038;-69
2023/07/12 06:33:38;;;;;;;9.40;4.35;;;;;;;17.13;100.00;100942.19;5203610;28;20029;-68
2023/07/12 06:36:09;;;;;;;9.43;4.53;;;;;;;17.23;100.00;100945.63;5201113;28;20042;-68
2023/07/12 06:38:41;;;;;;;10.65;4.30;;;;;;;17.24;100.00;100959.97;5196799;28;20033;-69
2023/07/12 06:41:12;;;;;;;9.20;3.75;;;;;;;17.30;100.00;100961.19;5201871;28;20333;-70
2023/07/12 06:43:44;;;;;;;7.60;3.35;;;;;;;17.33;100.00;100958.16;5211414;28;20030;-70
2023/07/12 06:46:16;;;;;;;8.18;3.60;;;;;;;17.36;100.00;100961.41;5197987;28;20488;-69
2023/07/12 06:48:48;;;;;;;7.50;3.70;;;;;;;17.47;100.00;100967.50;5206109;28;22259;-68
2023/07/12 06:51:21;;;;;;;7.72;3.38;;;;;;;17.48;100.00;100963.81;5210447;28;20033;-68
2023/07/12 06:53:52;;;;;;;11.90;4.15;;;;;;;17.55;100.00;100968.41;5197834;28;20080;-69
2023/07/12 06:56:24;;;;;;;8.55;3.60;;;;;;;17.64;100.00;100967.47;5194248;28;20031;-69
2023/07/12 06:58:55;;;;;;;8.93;3.22;;;;;;;17.75;100.00;100969.03;5199677;28;20030;-69
2023/07/12 07:01:26;;;;;;;8.48;3.40;;;;;;;17.74;100.00;100974.59;5202405;28;20026;-69
2023/07/12 07:03:58;;;;;;;11.80;3.67;;;;;;;17.74;100.00;100983.53;5202787;28;20022;-69
2023/07/12 07:06:30;;;;;;;6.55;3.22;;;;;;;17.77;100.00;100988.59;5218416;28;20034;-69
2023/07/12 07:09:02;;;;;;;8.85;3.38;;;;;;;17.81;100.00;100984.59;5205863;28;20147;-69
2023/07/12 07:11:33;;;;;;;6.93;3.45;;;;;;;17.95;100.00;100991.25;5198089;28;20029;-68
2023/07/12 07:14:05;;;;;;;9.93;3.67;;;;;;;17.98;100.00;100985.50;5210992;28;20025;-69
2023/07/12 07:16:36;;;;;;;10.60;3.58;;;;;;;18.09;100.00;100984.38;5208015;28;20026;-69
2023/07/12 07:19:08;;;;;;;7.60;3.10;;;;;;;18.11;100.00;100990.47;5215810;28;20018;-69
2023/07/12 07:21:41;;;;;;;8.82;3.45;;;;;;;18.16;100.00;100977.34;5202950;28;20788;-69
2023/07/12 07:24:12;;;;;;;9.32;3.72;;;;;;;18.26;100.00;100981.75;5208683;28;20041;-69
2023/07/12 07:26:44;;;;;;;8.52;3.60;;;;;;;18.41;100.00;100991.75;5199570;28;20505;-69
2023/07/12 07:29:15;;;;;;;11.57;3.42;;;;;;;18.42;100.00;101001.53;5211199;28;20914;-69
2023/07/12 07:31:46;;;;;;;6.88;3.60;;;;;;;18.47;100.00;101001.06;5204232;28;20172;-70
2023/07/12 07:34:18;;;;;;;8.57;3.75;;;;;;;18.54;100.00;101006.63;5202424;28;20037;-69
2023/07/12 07:36:49;;;;;;;8.02;3.65;;;;;;;18.55;100.00;101008.34;5204390;28;20083;-69
2023/07/12 07:39:21;;;;;;;11.55;3.88;;;;;;;18.60;100.00;101016.75;5203561;28;20037;-69
2023/07/12 07:41:52;;;;;;;10.00;3.45;;;;;;;18.66;100.00;101015.25;5212496;28;20085;-69
2023/07/12 07:44:23;;;;;;;7.13;2.65;;;;;;;18.69;100.00;101012.22;5201094;28;20882;-68
2023/07/12 07:46:55;;;;;;;10.40;3.17;;;;;;;18.79;100.00;101008.38;5206401;28;20483;-69
2023/07/12 07:49:26;;;;;;;7.05;2.75;;;;;;;18.90;100.00;101018.03;5206130;28;20026;-69
2023/07/12 07:51:58;;;;;;;6.30;2.67;;;;;;;19.03;100.00;101005.88;5200357;28;20026;-69
2023/07/12 07:54:29;;;;;;;8.70;3.50;;;;;;;19.16;100.00;101014.34;5193812;28;20109;-70
2023/07/12 07:57:00;;;;;;;7.05;2.75;;;;;;;19.18;100.00;101020.41;5216680;28;20014;-69
2023/07/12 07:59:32;;;;;;;8.00;2.90;;;;;;;19.21;100.00;101017.34;5201305;28;20476;-69
2023/07/12 08:02:03;;;;;;;7.25;3.03;;;;;;;19.26;100.00;101027.69;5198257;28;20034;-69
2023/07/12 08:04:36;;;;;;;6.05;2.72;;;;;;;19.20;100.00;101021.94;5209681;28;20057;-69
2023/07/12 08:07:10;;;;;;;8.90;3.70;;;;;;;19.25;100.00;101024.13;5212614;28;20182;-68
2023/07/12 08:09:42;;;;;;;10.60;3.45;;;;;;;19.24;100.00;101021.59;5207679;28;20045;-69
2023/07/12 08:12:14;;;;;;;8.30;3.30;;;;;;;19.22;100.00;101023.63;5211505;28;20417;-69
2023/07/12 08:14:46;;;;;;;8.07;3.65;;;;;;;19.28;100.00;101026.50;5207829;28;20471;-69
2023/07/12 08:17:17;;;;;;;6.45;3.05;;;;;;;19.31;100.00;101031.56;5205675;28;20029;-70
2023/07/12 08:19:51;;;;;;;7.35;3.25;;;;;;;19.23;100.00;101026.16;5201195;28;20112;-69
2023/07/12 08:22:22;;;;;;;7.00;2.95;;;;;;;19.24;100.00;101022.44;5197171;28;20022;-69
2023/07/12 08:24:54;;;;;;;9.07;3.70;;;;;;;19.31;100.00;101039.69;5203727;28;20581;-69
2023/07/12 08:27:25;;;;;;;8.15;3.20;;;;;;;19.32;100.00;101049.47;5204031;28;20247;-68
2023/07/12 08:29:59;;;;;;;8.57;3.33;;;;;;;19.32;100.00;101043.22;5203238;28;20031;-69
2023/07/12 08:32:33;;;;;;;10.65;3.70;;;;;;;19.38;100.00;101042.53;5212512;28;20459;-69
2023/07/12 08:35:05;;;;;;;9.60;3.95;;;;;;;19.40;100.00;101035.09;5201804;28;20022;-69
2023/07/12 08:37:36;;;;;;;8.13;3.65;;;;;;;19.45;100.00;101032.75;5208658;28;20507;-69
2023/07/12 08:40:13;;;;;;;8.65;3.42;;;;;;;19.52;100.00;101044.56;5207057;28;20030;-69
2023/07/12 08:42:45;;;;;;;10.10;3.90;;;;;;;19.58;100.00;101048.47;5204704;28;20034;-69
2023/07/12 08:45:28;;;;;;;10.00;3.05;;;;;;;19.57;100.00;101050.31;5204090;28;20037;-69
2023/07/12 08:48:04;;;;;;;9.93;3.83;;;;;;;19.56;100.00;101045.09;5198764;28;20030;-68
2023/07/12 08:50:41;;;;;;;6.82;3.38;;;;;;;19.53;100.00;101042.72;5200900;28;20034;-68
2023/07/12 08:53:25;;;;;;;10.10;4.05;;;;;;;19.53;100.00;101042.72;5206434;28;20026;-69
2023/07/12 08:56:00;;;;;;;8.32;3.80;;;;;;;19.49;100.00;101049.47;5203988;28;20397;-69
2023/07/12 08:58:41;;;;;;;9.93;4.07;;;;;;;19.52;100.00;101050.00;5211841;28;20417;-69
2023/07/12 09:01:44;;;;;;;7.47;3.85;;;;;;;19.57;100.00;101057.59;5205541;28;20042;-69
2023/07/12 09:04:25;;;;;;;7.05;3.22;;;;;;;19.49;100.00;101054.91;5204002;28;20053;-68
2023/07/12 09:07:01;;;;;;;10.45;3.80;;;;;;;19.46;100.00;101057.94;5203487;28;20033;-69
2023/07/12 09:09:36;;;;;;;8.05;4.05;;;;;;;19.53;100.00;101061.66;5202244;28;20104;-69
2023/07/12 09:12:22;;;;;;;8.50;3.55;;;;;;;19.61;100.00;101050.81;5211056;28;20090;-71
2023/07/12 09:15:04;;;;;;;6.68;3.05;;;;;;;19.80;100.00;101062.31;5210068;28;20021;-69
2023/07/12 09:17:48;;;;;;;7.65;3.30;;;;;;;19.90;100.00;101047.56;5201411;28;20068;-69
2023/07/12 09:20:29;;;;;;;8.40;3.20;;;;;;;19.96;100.00;101048.72;5204398;28;20034;-70
2023/07/12 09:23:00;;;;;;;10.32;3.50;;;;;;;19.92;100.00;101045.53;5214442;28;20438;-69
2023/07/12 09:25:37;;;;;;;7.38;3.28;;;;;;;19.96;100.00;101043.31;5209100;28;20041;-69
2023/07/12 09:28:13;;;;;;;8.13;3.70;;;;;;;20.01;100.00;101040.09;5202306;28;20180;-70
2023/07/12 09:30:45;;;;;;;7.05;3.90;;;;;;;20.09;100.00;101046.31;5199954;28;20029;-69
2023/07/12 09:33:21;;;;;;;8.43;3.90;;;;;;;20.13;100.00;101039.50;5197262;28;20047;-69
2023/07/12 09:35:52;;;;;;;6.45;3.60;;;;;;;20.13;100.00;101034.09;5208766;28;20026;-70
2023/07/12 09:38:24;;;;;;;6.80;3.65;;;;;;;20.18;100.00;101034.41;5196897;28;20046;-69
2023/07/12 09:40:55;;;;;;;11.70;3.55;;;;;;;20.17;100.00;101038.16;5198990;28;20034;-69
2023/07/12 09:43:27;;;;;;;9.70;3.20;;;;;;;20.16;100.00;101030.22;5208955;28;20483;-70
2023/07/12 09:46:40;;;;;;;11.15;3.60;;;;;;;20.21;100.00;101038.63;5203995;28;20044;-70
2023/07/12 09:49:19;;;;;;;7.03;3.00;;;;;;;20.25;100.00;101033.72;5197436;28;20077;-69
2023/07/12 09:52:31;;;;;;;10.82;3.17;;;;;;;20.34;100.00;101033.50;5206386;28;20033;-69
2023/07/12 09:55:23;;;;;;;5.25;2.47;;;;;;;20.39;100.00;101021.31;5205465;28;20192;-70
2023/07/12 09:58:16;;;;;;;6.65;2.97;;;;;;;20.44;100.00;101010.75;5207562;28;20519;-71
2023/07/12 10:00:57;;;;;;;6.75;2.97;;;;;;;20.53;100.00;101017.81;5200868;28;20034;-70
2023/07/12 10:03:41;;;;;;;7.35;2.17;;;;;;;20.66;100.00;101007.25;5209810;28;20036;-70
2023/07/12 10:06:27;;;;;;;7.00;2.47;;;;;;;20.79;100.00;101006.69;5206066;28;20022;-70
2023/07/12 10:09:07;;;;;;;6.03;2.10;;;;;;;20.81;100.00;100998.38;5205783;28;20166;-70
2023/07/12 10:11:43;;;;;;;7.53;2.25;;;;;;;20.97;100.00;101000.94;5200994;28;20037;-70
2023/07/12 10:14:17;;;;;;;8.43;2.08;;;;;;;21.07;100.00;101000.69;5202394;28;20145;-70
2023/07/12 10:16:51;;;;;;;7.57;2.35;;;;;;;21.17;100.00;101009.44;5206269;28;20025;-70
2023/07/12 10:19:28;;;;;;;7.65;2.50;;;;;;;21.30;100.00;101006.06;5202806;28;20036;-70
2023/07/12 10:22:04;;;;;;;7.65;2.35;;;;;;;21.27;100.00;101004.56;5203169;28;20033;-71
2023/07/12 10:24:42;;;;;;;11.30;2.30;;;;;;;21.33;100.00;101011.13;5207186;28;20026;-70
2023/07/12 10:27:21;;;;;;;9.23;2.33;;;;;;;21.36;100.00;101005.31;5205617;28;20026;-70
2023/07/12 10:29:59;;;;;;;8.50;2.47;;;;;;;21.43;100.00;101005.44;5201413;28;20030;-70
2023/07/12 10:32:39;;;;;;;11.00;2.70;;;;;;;21.52;100.00;101012.53;5205129;28;20554;-70
2023/07/12 10:35:16;;;;;;;9.38;2.35;;;;;;;21.60;100.00;101019.75;5203553;28;20026;-70
2023/07/12 10:38:04;;;;;;;8.65;1.90;;;;;;;21.66;100.00;101011.66;5201933;28;20071;-71
2023/07/12 10:40:40;;;;;;;6.22;1.90;;;;;;;21.77;100.00;101018.53;5206017;28;20136;-70
2023/07/12 10:43:46;;;;;;;6.47;2.38;;;;;;;21.80;100.00;101015.41;5217880;28;20034;-69
2023/07/12 10:46:20;;;;;;;8.00;1.90;;;;;;;21.96;100.00;101017.13;5199158;28;20704;-69
2023/07/12 10:48:54;;;;;;;6.20;2.05;;;;;;;22.10;100.00;101009.97;5199016;28;20404;-69
2023/07/12 10:51:38;;;;;;;9.35;2.20;;;;;;;22.28;100.00;101015.03;5202976;28;20038;-69
2023/07/12 10:54:28;;;;;;;6.13;2.03;;;;;;;22.39;100.00;101016.44;5199573;28;20125;-69
2023/07/12 10:57:21;;;;;;;5.50;1.98;;;;;;;22.46;100.00;101009.22;5194487;28;20030;-70
2023/07/12 11:00:23;;;;;;;8.75;2.10;;;;;;;22.55;100.00;101020.78;5205332;28;20034;-68
2023/07/12 11:03:10;;;;;;;6.00;2.00;;;;;;;22.51;100.00;101023.91;5203440;28;20034;-69
2023/07/12 11:05:46;;;;;;;4.93;1.63;;;;;;;22.60;100.00;101021.91;5204639;28;20468;-69
2023/07/12 11:08:54;;;;;;;7.93;1.95;;;;;;;22.69;100.00;101012.59;5203244;28;20048;-69
2023/07/12 11:11:30;;;;;;;8.15;1.95;;;;;;;22.58;100.00;101020.41;5209922;28;20145;-69
2023/07/12 11:14:13;;;;;;;11.55;2.00;;;;;;;22.48;100.00;101018.84;5214905;28;20125;-69
2023/07/12 11:16:49;;;;;;;9.68;1.95;;;;;;;22.49;100.00;101011.53;5203351;28;20116;-69
2023/07/12 11:19:44;;;;;;;8.45;2.50;;;;;;;22.48;100.00;101007.97;5202667;28;20036;-69
2023/07/12 11:22:21;;;;;;;6.50;1.70;;;;;;;22.47;100.00;101016.31;5207185;28;20034;-69
2023/07/12 11:25:52;;;;;;;8.43;1.90;;;;;;;22.58;100.00;101012.25;5196262;28;20143;-69
2023/07/12 11:28:28;;;;;;;8.48;2.00;;;;;;;22.76;100.00;101009.09;5203795;28;20042;-69
2023/07/12 11:31:25;;;;;;;6.22;1.83;;;;;;;22.99;100.00;101009.75;5203551;28;20030;-69
2023/07/12 11:34:16;;;;;;;7.03;1.50;;;;;;;23.12;100.00;101017.22;5206480;28;20034;-69
2023/07/12 11:36:51;;;;;;;8.32;1.85;;;;;;;23.01;100.00;101028.59;5194385;28;20023;-69
2023/07/12 11:39:24;;;;;;;5.30;1.65;;;;;;;22.93;100.00;101021.41;5203195;28;20034;-70
2023/07/12 11:41:58;;;;;;;7.13;1.83;;;;;;;22.99;100.00;101028.81;5196541;28;20076;-69
2023/07/12 11:44:29;;;;;;;6.88;2.15;;;;;;;23.01;100.00;101017.69;5196930;28;20696;-69
2023/07/12 11:47:02;;;;;;;4.70;1.67;;;;;;;23.05;100.00;101025.31;5212747;28;20032;-69
2023/07/12 11:49:33;;;;;;;7.22;1.70;;;;;;;23.06;100.00;101013.38;5197716;28;20151;-69
2023/07/12 11:52:15;;;;;;;5.78;1.75;;;;;;;23.21;100.00;101016.03;5203788;28;20113;-69